sensor_id;sensor_type;location;lat;lon;timestamp;temperature;humidity
36450;DHT22;22475;51.390;7.180;2023-05-07T00:02:25;16.30;92.00
36450;DHT22;22475;51.390;7.180;2023-05-07T00:04:53;16.30;92.00
36450;DHT22;22475;51.390;7.180;2023-05-07T00:07:20;16.30;92.00
36450;DHT22;22475;51.390;7.180;2023-05-07T00:09:49;16.30;92.00
36450;DHT22;22475;51.390;7.180;2023-05-07T00:12:16;16.30;92.00
36450;DHT22;22475;51.390;7.180;2023-05-07T00:14:43;16.30;92.10
36450;DHT22;22475;51.390;7.180;2023-05-07T00:17:10;16.30;92.20
36450;DHT22;22475;51.390;7.180;2023-05-07T00:19:37;16.30;92.10
36450;DHT22;22475;51.390;7.180;2023-05-07T00:22:05;16.30;92.10
36450;DHT22;22475;51.390;7.180;2023-05-07T00:24:32;16.30;92.20
36450;DHT22;22475;51.390;7.180;2023-05-07T00:26:59;16.30;92.20
36450;DHT22;22475;51.390;7.180;2023-05-07T00:29:25;16.20;92.20
36450;DHT22;22475;51.390;7.180;2023-05-07T00:31:52;16.30;92.30
36450;DHT22;22475;51.390;7.180;2023-05-07T00:34:20;16.30;92.30
36450;DHT22;22475;51.390;7.180;2023-05-07T00:36:46;16.30;92.40
36450;DHT22;22475;51.390;7.180;2023-05-07T00:39:14;16.30;92.40
36450;DHT22;22475;51.390;7.180;2023-05-07T00:41:41;16.30;92.40
36450;DHT22;22475;51.390;7.180;2023-05-07T00:44:11;16.30;92.40
36450;DHT22;22475;51.390;7.180;2023-05-07T00:46:38;16.20;92.70
36450;DHT22;22475;51.390;7.180;2023-05-07T00:49:05;16.30;92.40
36450;DHT22;22475;51.390;7.180;2023-05-07T00:51:33;16.30;92.50
36450;DHT22;22475;51.390;7.180;2023-05-07T00:54:01;16.30;92.50
36450;DHT22;22475;51.390;7.180;2023-05-07T00:56:30;16.30;92.60
36450;DHT22;22475;51.390;7.180;2023-05-07T00:58:57;16.30;92.60
36450;DHT22;22475;51.390;7.180;2023-05-07T01:01:24;16.30;92.60
36450;DHT22;22475;51.390;7.180;2023-05-07T01:03:51;16.30;92.60
36450;DHT22;22475;51.390;7.180;2023-05-07T01:06:19;16.30;92.70
36450;DHT22;22475;51.390;7.180;2023-05-07T01:08:47;16.30;92.70
36450;DHT22;22475;51.390;7.180;2023-05-07T01:11:17;16.30;92.70
36450;DHT22;22475;51.390;7.180;2023-05-07T01:13:46;16.20;92.60
36450;DHT22;22475;51.390;7.180;2023-05-07T01:16:13;16.20;92.60
36450;DHT22;22475;51.390;7.180;2023-05-07T01:18:40;16.20;92.60
36450;DHT22;22475;51.390;7.180;2023-05-07T01:21:11;16.30;92.70
36450;DHT22;22475;51.390;7.180;2023-05-07T01:23:39;16.30;92.80
36450;DHT22;22475;51.390;7.180;2023-05-07T01:26:06;16.30;92.80
36450;DHT22;22475;51.390;7.180;2023-05-07T01:28:33;16.30;92.90
36450;DHT22;22475;51.390;7.180;2023-05-07T01:31:01;16.30;92.90
36450;DHT22;22475;51.390;7.180;2023-05-07T01:33:31;16.30;92.90
36450;DHT22;22475;51.390;7.180;2023-05-07T01:35:59;16.30;92.90
36450;DHT22;22475;51.390;7.180;2023-05-07T01:38:28;16.30;92.90
36450;DHT22;22475;51.390;7.180;2023-05-07T01:40:57;16.30;92.80
36450;DHT22;22475;51.390;7.180;2023-05-07T01:43:25;16.20;92.80
36450;DHT22;22475;51.390;7.180;2023-05-07T01:45:52;16.30;92.80
36450;DHT22;22475;51.390;7.180;2023-05-07T01:48:19;16.20;92.80
36450;DHT22;22475;51.390;7.180;2023-05-07T01:50:46;16.20;92.80
36450;DHT22;22475;51.390;7.180;2023-05-07T01:53:13;16.30;92.80
36450;DHT22;22475;51.390;7.180;2023-05-07T01:55:40;16.20;92.80
36450;DHT22;22475;51.390;7.180;2023-05-07T01:58:08;16.20;92.80
36450;DHT22;22475;51.390;7.180;2023-05-07T02:00:35;16.30;92.80
36450;DHT22;22475;51.390;7.180;2023-05-07T02:03:02;16.30;92.80
36450;DHT22;22475;51.390;7.180;2023-05-07T02:05:28;16.20;92.80
36450;DHT22;22475;51.390;7.180;2023-05-07T02:07:55;16.20;92.80
36450;DHT22;22475;51.390;7.180;2023-05-07T02:10:22;16.30;92.90
36450;DHT22;22475;51.390;7.180;2023-05-07T02:12:49;16.20;92.90
36450;DHT22;22475;51.390;7.180;2023-05-07T02:15:17;16.20;92.90
36450;DHT22;22475;51.390;7.180;2023-05-07T02:17:58;16.20;92.80
36450;DHT22;22475;51.390;7.180;2023-05-07T02:20:25;16.20;92.80
36450;DHT22;22475;51.390;7.180;2023-05-07T02:22:52;16.20;92.80
36450;DHT22;22475;51.390;7.180;2023-05-07T02:25:19;16.20;92.80
36450;DHT22;22475;51.390;7.180;2023-05-07T02:27:46;16.20;92.80
36450;DHT22;22475;51.390;7.180;2023-05-07T02:30:14;16.20;92.80
36450;DHT22;22475;51.390;7.180;2023-05-07T02:32:42;16.20;92.80
36450;DHT22;22475;51.390;7.180;2023-05-07T02:35:09;16.20;92.80
36450;DHT22;22475;51.390;7.180;2023-05-07T02:37:35;16.20;92.80
36450;DHT22;22475;51.390;7.180;2023-05-07T02:40:03;16.20;92.80
36450;DHT22;22475;51.390;7.180;2023-05-07T02:42:30;16.20;92.80
36450;DHT22;22475;51.390;7.180;2023-05-07T02:44:56;16.20;92.80
36450;DHT22;22475;51.390;7.180;2023-05-07T02:47:34;16.20;93.20
36450;DHT22;22475;51.390;7.180;2023-05-07T02:50:02;16.20;92.80
36450;DHT22;22475;51.390;7.180;2023-05-07T02:52:29;16.20;92.80
36450;DHT22;22475;51.390;7.180;2023-05-07T02:54:56;16.20;92.80
36450;DHT22;22475;51.390;7.180;2023-05-07T02:57:23;16.20;92.80
36450;DHT22;22475;51.390;7.180;2023-05-07T02:59:49;16.20;92.80
36450;DHT22;22475;51.390;7.180;2023-05-07T03:02:16;16.20;92.80
36450;DHT22;22475;51.390;7.180;2023-05-07T03:04:43;16.20;92.70
36450;DHT22;22475;51.390;7.180;2023-05-07T03:07:11;16.20;92.70
36450;DHT22;22475;51.390;7.180;2023-05-07T03:09:38;16.20;92.70
36450;DHT22;22475;51.390;7.180;2023-05-07T03:12:05;16.20;92.70
36450;DHT22;22475;51.390;7.180;2023-05-07T03:14:31;16.20;92.70
36450;DHT22;22475;51.390;7.180;2023-05-07T03:16:58;16.20;92.60
36450;DHT22;22475;51.390;7.180;2023-05-07T03:19:25;16.20;92.60
36450;DHT22;22475;51.390;7.180;2023-05-07T03:21:52;16.20;92.60
36450;DHT22;22475;51.390;7.180;2023-05-07T03:24:20;16.20;92.60
36450;DHT22;22475;51.390;7.180;2023-05-07T03:26:47;16.20;92.60
36450;DHT22;22475;51.390;7.180;2023-05-07T03:29:13;16.20;92.60
36450;DHT22;22475;51.390;7.180;2023-05-07T03:31:40;16.20;92.60
36450;DHT22;22475;51.390;7.180;2023-05-07T03:34:07;16.20;92.60
36450;DHT22;22475;51.390;7.180;2023-05-07T03:36:34;16.20;92.60
36450;DHT22;22475;51.390;7.180;2023-05-07T03:39:00;16.20;92.60
36450;DHT22;22475;51.390;7.180;2023-05-07T03:41:28;16.20;92.60
36450;DHT22;22475;51.390;7.180;2023-05-07T03:43:56;16.20;92.60
36450;DHT22;22475;51.390;7.180;2023-05-07T03:46:22;16.20;92.60
36450;DHT22;22475;51.390;7.180;2023-05-07T03:48:51;16.20;92.70
36450;DHT22;22475;51.390;7.180;2023-05-07T03:51:18;16.20;92.70
36450;DHT22;22475;51.390;7.180;2023-05-07T03:53:44;16.20;92.70
36450;DHT22;22475;51.390;7.180;2023-05-07T03:56:11;16.20;92.70
36450;DHT22;22475;51.390;7.180;2023-05-07T03:58:39;16.20;92.70
36450;DHT22;22475;51.390;7.180;2023-05-07T04:01:06;16.20;92.70
36450;DHT22;22475;51.390;7.180;2023-05-07T04:03:33;16.20;92.70
36450;DHT22;22475;51.390;7.180;2023-05-07T04:06:00;16.20;92.70
36450;DHT22;22475;51.390;7.180;2023-05-07T04:08:26;16.20;92.70
36450;DHT22;22475;51.390;7.180;2023-05-07T04:10:56;16.20;92.70
36450;DHT22;22475;51.390;7.180;2023-05-07T04:13:23;16.20;92.70
36450;DHT22;22475;51.390;7.180;2023-05-07T04:15:52;16.20;92.60
36450;DHT22;22475;51.390;7.180;2023-05-07T04:18:18;16.20;92.60
36450;DHT22;22475;51.390;7.180;2023-05-07T04:20:47;16.10;92.60
36450;DHT22;22475;51.390;7.180;2023-05-07T04:23:14;16.20;92.60
36450;DHT22;22475;51.390;7.180;2023-05-07T04:25:41;16.10;92.60
36450;DHT22;22475;51.390;7.180;2023-05-07T04:28:08;16.20;92.60
36450;DHT22;22475;51.390;7.180;2023-05-07T04:30:34;16.20;92.60
36450;DHT22;22475;51.390;7.180;2023-05-07T04:33:02;16.10;92.50
36450;DHT22;22475;51.390;7.180;2023-05-07T04:35:29;16.10;92.90
36450;DHT22;22475;51.390;7.180;2023-05-07T04:37:56;16.10;92.60
36450;DHT22;22475;51.390;7.180;2023-05-07T04:40:23;16.10;92.60
36450;DHT22;22475;51.390;7.180;2023-05-07T04:42:50;16.10;92.60
36450;DHT22;22475;51.390;7.180;2023-05-07T04:45:16;16.10;92.60
36450;DHT22;22475;51.390;7.180;2023-05-07T04:47:43;16.10;92.70
36450;DHT22;22475;51.390;7.180;2023-05-07T04:50:11;16.10;92.70
36450;DHT22;22475;51.390;7.180;2023-05-07T04:52:38;16.20;92.70
36450;DHT22;22475;51.390;7.180;2023-05-07T04:55:06;16.20;92.70
36450;DHT22;22475;51.390;7.180;2023-05-07T04:57:33;16.10;92.80
36450;DHT22;22475;51.390;7.180;2023-05-07T04:59:59;16.10;92.80
36450;DHT22;22475;51.390;7.180;2023-05-07T05:02:26;16.20;92.80
36450;DHT22;22475;51.390;7.180;2023-05-07T05:04:53;16.10;92.80
36450;DHT22;22475;51.390;7.180;2023-05-07T05:07:21;16.10;92.80
36450;DHT22;22475;51.390;7.180;2023-05-07T05:09:48;16.10;92.90
36450;DHT22;22475;51.390;7.180;2023-05-07T05:12:14;16.20;92.90
36450;DHT22;22475;51.390;7.180;2023-05-07T05:14:41;16.20;92.90
36450;DHT22;22475;51.390;7.180;2023-05-07T05:17:08;16.20;93.00
36450;DHT22;22475;51.390;7.180;2023-05-07T05:19:35;16.20;93.00
36450;DHT22;22475;51.390;7.180;2023-05-07T05:22:01;16.20;93.00
36450;DHT22;22475;51.390;7.180;2023-05-07T05:24:30;16.20;93.00
36450;DHT22;22475;51.390;7.180;2023-05-07T05:26:57;16.20;93.10
36450;DHT22;22475;51.390;7.180;2023-05-07T05:29:25;16.20;93.00
36450;DHT22;22475;51.390;7.180;2023-05-07T05:31:52;16.20;93.00
36450;DHT22;22475;51.390;7.180;2023-05-07T05:34:18;16.20;93.00
36450;DHT22;22475;51.390;7.180;2023-05-07T05:36:47;16.20;93.00
36450;DHT22;22475;51.390;7.180;2023-05-07T05:39:13;16.20;93.00
36450;DHT22;22475;51.390;7.180;2023-05-07T05:41:42;16.20;93.00
36450;DHT22;22475;51.390;7.180;2023-05-07T05:44:08;16.20;93.00
36450;DHT22;22475;51.390;7.180;2023-05-07T05:46:35;16.20;93.00
36450;DHT22;22475;51.390;7.180;2023-05-07T05:49:02;16.20;93.00
36450;DHT22;22475;51.390;7.180;2023-05-07T05:51:29;16.20;93.00
36450;DHT22;22475;51.390;7.180;2023-05-07T05:53:56;16.20;93.10
36450;DHT22;22475;51.390;7.180;2023-05-07T05:56:22;16.20;93.10
36450;DHT22;22475;51.390;7.180;2023-05-07T05:58:51;16.20;93.10
36450;DHT22;22475;51.390;7.180;2023-05-07T06:01:18;16.20;93.20
36450;DHT22;22475;51.390;7.180;2023-05-07T06:03:45;16.20;93.30
36450;DHT22;22475;51.390;7.180;2023-05-07T06:06:11;16.20;93.30
36450;DHT22;22475;51.390;7.180;2023-05-07T06:08:40;16.20;93.40
36450;DHT22;22475;51.390;7.180;2023-05-07T06:11:07;16.20;93.50
36450;DHT22;22475;51.390;7.180;2023-05-07T06:13:33;16.20;93.50
36450;DHT22;22475;51.390;7.180;2023-05-07T06:16:01;16.20;93.60
36450;DHT22;22475;51.390;7.180;2023-05-07T06:18:28;16.20;93.60
36450;DHT22;22475;51.390;7.180;2023-05-07T06:20:55;16.20;93.60
36450;DHT22;22475;51.390;7.180;2023-05-07T06:23:21;16.20;94.00
36450;DHT22;22475;51.390;7.180;2023-05-07T06:25:49;16.20;93.60
36450;DHT22;22475;51.390;7.180;2023-05-07T06:28:16;16.20;93.60
36450;DHT22;22475;51.390;7.180;2023-05-07T06:30:42;16.20;93.50
36450;DHT22;22475;51.390;7.180;2023-05-07T06:33:10;16.20;93.50
36450;DHT22;22475;51.390;7.180;2023-05-07T06:35:37;16.20;93.40
36450;DHT22;22475;51.390;7.180;2023-05-07T06:38:04;16.20;93.40
36450;DHT22;22475;51.390;7.180;2023-05-07T06:40:31;16.20;93.40
36450;DHT22;22475;51.390;7.180;2023-05-07T06:42:57;16.30;93.30
36450;DHT22;22475;51.390;7.180;2023-05-07T06:45:24;16.20;93.20
36450;DHT22;22475;51.390;7.180;2023-05-07T06:47:51;16.30;93.20
36450;DHT22;22475;51.390;7.180;2023-05-07T06:50:19;16.20;93.10
36450;DHT22;22475;51.390;7.180;2023-05-07T06:52:46;16.20;93.10
36450;DHT22;22475;51.390;7.180;2023-05-07T06:55:13;16.30;93.10
36450;DHT22;22475;51.390;7.180;2023-05-07T06:57:40;16.30;93.00
36450;DHT22;22475;51.390;7.180;2023-05-07T07:00:08;16.20;92.90
36450;DHT22;22475;51.390;7.180;2023-05-07T07:02:36;16.30;92.90
36450;DHT22;22475;51.390;7.180;2023-05-07T07:05:03;16.20;92.90
36450;DHT22;22475;51.390;7.180;2023-05-07T07:07:32;16.30;92.90
36450;DHT22;22475;51.390;7.180;2023-05-07T07:09:58;16.30;92.80
36450;DHT22;22475;51.390;7.180;2023-05-07T07:12:25;16.20;92.70
36450;DHT22;22475;51.390;7.180;2023-05-07T07:14:52;16.20;92.70
36450;DHT22;22475;51.390;7.180;2023-05-07T07:17:18;16.30;92.70
36450;DHT22;22475;51.390;7.180;2023-05-07T07:19:45;16.30;92.60
36450;DHT22;22475;51.390;7.180;2023-05-07T07:22:12;16.30;92.60
36450;DHT22;22475;51.390;7.180;2023-05-07T07:24:40;16.20;92.60
36450;DHT22;22475;51.390;7.180;2023-05-07T07:27:07;16.30;92.60
36450;DHT22;22475;51.390;7.180;2023-05-07T07:29:33;16.20;92.50
36450;DHT22;22475;51.390;7.180;2023-05-07T07:32:00;16.30;92.50
36450;DHT22;22475;51.390;7.180;2023-05-07T07:34:27;16.30;92.50
36450;DHT22;22475;51.390;7.180;2023-05-07T07:36:54;16.30;92.50
36450;DHT22;22475;51.390;7.180;2023-05-07T07:39:21;16.30;92.50
36450;DHT22;22475;51.390;7.180;2023-05-07T07:41:49;16.30;92.50
36450;DHT22;22475;51.390;7.180;2023-05-07T07:44:16;16.30;92.40
36450;DHT22;22475;51.390;7.180;2023-05-07T07:46:43;16.30;92.40
36450;DHT22;22475;51.390;7.180;2023-05-07T07:49:09;16.30;92.40
36450;DHT22;22475;51.390;7.180;2023-05-07T07:51:36;16.30;92.40
36450;DHT22;22475;51.390;7.180;2023-05-07T07:54:03;16.30;92.40
36450;DHT22;22475;51.390;7.180;2023-05-07T07:56:31;16.30;92.40
36450;DHT22;22475;51.390;7.180;2023-05-07T07:59:00;16.20;92.30
36450;DHT22;22475;51.390;7.180;2023-05-07T08:01:26;16.30;92.30
36450;DHT22;22475;51.390;7.180;2023-05-07T08:03:53;16.30;92.30
36450;DHT22;22475;51.390;7.180;2023-05-07T08:06:20;16.30;92.30
36450;DHT22;22475;51.390;7.180;2023-05-07T08:08:47;16.30;92.30
36450;DHT22;22475;51.390;7.180;2023-05-07T08:11:14;16.30;92.30
36450;DHT22;22475;51.390;7.180;2023-05-07T08:13:41;16.30;92.30
36450;DHT22;22475;51.390;7.180;2023-05-07T08:16:09;16.30;92.30
36450;DHT22;22475;51.390;7.180;2023-05-07T08:18:36;16.30;92.30
36450;DHT22;22475;51.390;7.180;2023-05-07T08:21:08;16.30;92.30
36450;DHT22;22475;51.390;7.180;2023-05-07T08:23:34;16.30;92.30
36450;DHT22;22475;51.390;7.180;2023-05-07T08:26:01;16.30;92.30
36450;DHT22;22475;51.390;7.180;2023-05-07T08:28:28;16.30;92.30
36450;DHT22;22475;51.390;7.180;2023-05-07T08:30:55;16.30;92.30
36450;DHT22;22475;51.390;7.180;2023-05-07T08:33:26;16.30;92.30
36450;DHT22;22475;51.390;7.180;2023-05-07T08:35:53;16.30;92.30
36450;DHT22;22475;51.390;7.180;2023-05-07T08:38:20;16.30;92.30
36450;DHT22;22475;51.390;7.180;2023-05-07T08:40:46;16.30;92.30
36450;DHT22;22475;51.390;7.180;2023-05-07T08:43:14;16.30;92.30
36450;DHT22;22475;51.390;7.180;2023-05-07T08:45:41;16.30;92.30
36450;DHT22;22475;51.390;7.180;2023-05-07T08:48:09;16.30;92.30
36450;DHT22;22475;51.390;7.180;2023-05-07T08:50:44;16.30;92.30
36450;DHT22;22475;51.390;7.180;2023-05-07T08:53:12;16.30;92.30
36450;DHT22;22475;51.390;7.180;2023-05-07T08:55:39;16.30;92.30
36450;DHT22;22475;51.390;7.180;2023-05-07T08:58:05;16.30;92.30
36450;DHT22;22475;51.390;7.180;2023-05-07T09:00:32;16.30;92.30
36450;DHT22;22475;51.390;7.180;2023-05-07T09:03:00;16.30;92.30
36450;DHT22;22475;51.390;7.180;2023-05-07T09:05:27;16.30;92.30
36450;DHT22;22475;51.390;7.180;2023-05-07T09:07:55;16.30;92.30
36450;DHT22;22475;51.390;7.180;2023-05-07T09:10:22;16.30;92.30
36450;DHT22;22475;51.390;7.180;2023-05-07T09:12:48;16.30;92.30
36450;DHT22;22475;51.390;7.180;2023-05-07T09:15:15;16.40;92.30
36450;DHT22;22475;51.390;7.180;2023-05-07T09:17:43;16.30;92.30
36450;DHT22;22475;51.390;7.180;2023-05-07T09:20:10;16.30;92.30
36450;DHT22;22475;51.390;7.180;2023-05-07T09:22:37;16.30;92.30
36450;DHT22;22475;51.390;7.180;2023-05-07T09:25:06;16.30;92.30
36450;DHT22;22475;51.390;7.180;2023-05-07T09:27:34;16.30;92.30
36450;DHT22;22475;51.390;7.180;2023-05-07T09:30:03;16.30;92.30
36450;DHT22;22475;51.390;7.180;2023-05-07T09:32:34;16.30;92.30
36450;DHT22;22475;51.390;7.180;2023-05-07T09:35:01;16.30;92.20
36450;DHT22;22475;51.390;7.180;2023-05-07T09:37:28;16.40;92.30
36450;DHT22;22475;51.390;7.180;2023-05-07T09:39:57;16.40;92.30
36450;DHT22;22475;51.390;7.180;2023-05-07T09:42:25;16.30;92.30
36450;DHT22;22475;51.390;7.180;2023-05-07T09:44:52;16.30;92.20
36450;DHT22;22475;51.390;7.180;2023-05-07T09:47:20;16.30;92.30
36450;DHT22;22475;51.390;7.180;2023-05-07T09:49:50;16.40;92.30
36450;DHT22;22475;51.390;7.180;2023-05-07T09:52:22;16.30;92.20
36450;DHT22;22475;51.390;7.180;2023-05-07T09:54:50;16.40;92.30
36450;DHT22;22475;51.390;7.180;2023-05-07T09:57:19;16.40;92.30
36450;DHT22;22475;51.390;7.180;2023-05-07T09:59:49;16.40;92.30
36450;DHT22;22475;51.390;7.180;2023-05-07T10:02:17;16.30;92.20
36450;DHT22;22475;51.390;7.180;2023-05-07T10:04:45;16.40;92.30
36450;DHT22;22475;51.390;7.180;2023-05-07T10:07:14;16.40;92.20
36450;DHT22;22475;51.390;7.180;2023-05-07T10:09:42;16.40;92.20
36450;DHT22;22475;51.390;7.180;2023-05-07T10:12:10;16.40;92.20
36450;DHT22;22475;51.390;7.180;2023-05-07T10:14:37;16.40;92.20
36450;DHT22;22475;51.390;7.180;2023-05-07T10:17:06;16.40;92.30
36450;DHT22;22475;51.390;7.180;2023-05-07T10:19:34;16.40;92.20
36450;DHT22;22475;51.390;7.180;2023-05-07T10:22:05;16.30;92.20
36450;DHT22;22475;51.390;7.180;2023-05-07T10:24:32;16.40;92.20
36450;DHT22;22475;51.390;7.180;2023-05-07T10:27:02;16.30;92.20
36450;DHT22;22475;51.390;7.180;2023-05-07T10:29:35;16.30;92.20
36450;DHT22;22475;51.390;7.180;2023-05-07T10:32:26;16.30;92.20
36450;DHT22;22475;51.390;7.180;2023-05-07T10:34:58;16.40;92.20
36450;DHT22;22475;51.390;7.180;2023-05-07T10:37:26;16.40;92.20
36450;DHT22;22475;51.390;7.180;2023-05-07T10:39:53;16.40;92.20
36450;DHT22;22475;51.390;7.180;2023-05-07T10:42:20;16.40;92.20
36450;DHT22;22475;51.390;7.180;2023-05-07T10:44:47;16.40;92.20
36450;DHT22;22475;51.390;7.180;2023-05-07T10:47:16;16.40;92.20
36450;DHT22;22475;51.390;7.180;2023-05-07T10:50:21;16.40;92.20
36450;DHT22;22475;51.390;7.180;2023-05-07T10:53:22;16.40;92.20
36450;DHT22;22475;51.390;7.180;2023-05-07T10:58:50;16.40;92.50
36450;DHT22;22475;51.390;7.180;2023-05-07T11:01:50;16.40;92.20
36450;DHT22;22475;51.390;7.180;2023-05-07T11:04:18;16.40;92.20
36450;DHT22;22475;51.390;7.180;2023-05-07T11:07:24;16.40;92.20
36450;DHT22;22475;51.390;7.180;2023-05-07T11:09:55;16.40;92.20
36450;DHT22;22475;51.390;7.180;2023-05-07T11:12:53;16.40;92.20
36450;DHT22;22475;51.390;7.180;2023-05-07T11:15:50;16.40;92.20
36450;DHT22;22475;51.390;7.180;2023-05-07T11:18:18;16.40;92.20
36450;DHT22;22475;51.390;7.180;2023-05-07T11:20:54;16.40;92.20
36450;DHT22;22475;51.390;7.180;2023-05-07T11:23:55;16.40;92.20
36450;DHT22;22475;51.390;7.180;2023-05-07T11:26:23;16.40;92.20
36450;DHT22;22475;51.390;7.180;2023-05-07T11:28:51;16.40;92.20
36450;DHT22;22475;51.390;7.180;2023-05-07T11:31:21;16.40;92.20
36450;DHT22;22475;51.390;7.180;2023-05-07T11:33:50;16.40;92.20
36450;DHT22;22475;51.390;7.180;2023-05-07T11:36:18;16.40;92.20
36450;DHT22;22475;51.390;7.180;2023-05-07T11:38:45;16.40;92.20
36450;DHT22;22475;51.390;7.180;2023-05-07T11:41:12;16.40;92.20
36450;DHT22;22475;51.390;7.180;2023-05-07T11:43:53;16.40;92.20
36450;DHT22;22475;51.390;7.180;2023-05-07T11:46:21;16.40;92.20
36450;DHT22;22475;51.390;7.180;2023-05-07T11:48:49;16.40;92.20
36450;DHT22;22475;51.390;7.180;2023-05-07T11:51:19;16.40;92.20
36450;DHT22;22475;51.390;7.180;2023-05-07T11:53:46;16.40;92.20
36450;DHT22;22475;51.390;7.180;2023-05-07T11:56:14;16.40;92.20
36450;DHT22;22475;51.390;7.180;2023-05-07T11:58:43;16.40;92.20
36450;DHT22;22475;51.390;7.180;2023-05-07T12:01:11;16.40;92.20
36450;DHT22;22475;51.390;7.180;2023-05-07T12:03:40;16.40;92.20
36450;DHT22;22475;51.390;7.180;2023-05-07T12:06:10;16.40;92.20
36450;DHT22;22475;51.390;7.180;2023-05-07T12:08:38;16.40;92.20
36450;DHT22;22475;51.390;7.180;2023-05-07T12:11:08;16.40;92.20
36450;DHT22;22475;51.390;7.180;2023-05-07T12:13:35;16.40;92.20
36450;DHT22;22475;51.390;7.180;2023-05-07T12:16:02;16.40;92.20
36450;DHT22;22475;51.390;7.180;2023-05-07T12:18:30;16.40;92.10
36450;DHT22;22475;51.390;7.180;2023-05-07T12:20:57;16.40;92.10
36450;DHT22;22475;51.390;7.180;2023-05-07T12:23:26;16.40;92.20
36450;DHT22;22475;51.390;7.180;2023-05-07T12:25:53;16.50;92.20
36450;DHT22;22475;51.390;7.180;2023-05-07T12:28:20;16.40;92.20
36450;DHT22;22475;51.390;7.180;2023-05-07T12:30:48;16.40;92.10
36450;DHT22;22475;51.390;7.180;2023-05-07T12:33:17;16.50;92.20
36450;DHT22;22475;51.390;7.180;2023-05-07T12:35:47;16.40;92.10
36450;DHT22;22475;51.390;7.180;2023-05-07T12:38:15;16.50;92.20
36450;DHT22;22475;51.390;7.180;2023-05-07T12:40:45;16.50;92.10
36450;DHT22;22475;51.390;7.180;2023-05-07T12:43:16;16.50;92.10
36450;DHT22;22475;51.390;7.180;2023-05-07T12:45:44;16.40;92.10
36450;DHT22;22475;51.390;7.180;2023-05-07T12:48:12;16.50;92.50
36450;DHT22;22475;51.390;7.180;2023-05-07T12:50:39;16.50;92.10
36450;DHT22;22475;51.390;7.180;2023-05-07T12:53:06;16.40;92.40
36450;DHT22;22475;51.390;7.180;2023-05-07T12:55:41;16.50;92.10
36450;DHT22;22475;51.390;7.180;2023-05-07T12:58:15;16.50;92.10
36450;DHT22;22475;51.390;7.180;2023-05-07T13:00:42;16.40;92.10
36450;DHT22;22475;51.390;7.180;2023-05-07T13:03:10;16.50;92.10
36450;DHT22;22475;51.390;7.180;2023-05-07T13:05:37;16.50;92.10
36450;DHT22;22475;51.390;7.180;2023-05-07T13:08:04;16.50;92.10
36450;DHT22;22475;51.390;7.180;2023-05-07T13:10:31;16.50;92.10
36450;DHT22;22475;51.390;7.180;2023-05-07T13:12:59;16.40;92.10
36450;DHT22;22475;51.390;7.180;2023-05-07T13:15:27;16.50;92.10
36450;DHT22;22475;51.390;7.180;2023-05-07T13:17:54;16.50;92.10
36450;DHT22;22475;51.390;7.180;2023-05-07T13:20:21;16.50;92.10
36450;DHT22;22475;51.390;7.180;2023-05-07T13:22:48;16.50;92.10
36450;DHT22;22475;51.390;7.180;2023-05-07T13:25:15;16.50;92.10
36450;DHT22;22475;51.390;7.180;2023-05-07T13:27:42;16.50;92.10
36450;DHT22;22475;51.390;7.180;2023-05-07T13:30:09;16.50;92.10
36450;DHT22;22475;51.390;7.180;2023-05-07T13:32:37;16.50;92.10
36450;DHT22;22475;51.390;7.180;2023-05-07T13:35:04;16.50;92.10
36450;DHT22;22475;51.390;7.180;2023-05-07T13:37:31;16.50;92.10
36450;DHT22;22475;51.390;7.180;2023-05-07T13:39:58;16.50;92.10
36450;DHT22;22475;51.390;7.180;2023-05-07T13:42:25;16.50;92.10
36450;DHT22;22475;51.390;7.180;2023-05-07T13:44:51;16.50;92.10
36450;DHT22;22475;51.390;7.180;2023-05-07T13:47:18;16.50;92.10
36450;DHT22;22475;51.390;7.180;2023-05-07T13:49:46;16.50;92.10
36450;DHT22;22475;51.390;7.180;2023-05-07T13:52:15;16.50;92.10
36450;DHT22;22475;51.390;7.180;2023-05-07T13:54:41;16.50;92.10
36450;DHT22;22475;51.390;7.180;2023-05-07T13:57:08;16.50;92.10
36450;DHT22;22475;51.390;7.180;2023-05-07T13:59:35;16.50;92.10
36450;DHT22;22475;51.390;7.180;2023-05-07T14:02:02;16.50;92.10
36450;DHT22;22475;51.390;7.180;2023-05-07T14:04:30;16.50;92.10
36450;DHT22;22475;51.390;7.180;2023-05-07T14:06:58;16.50;92.10
36450;DHT22;22475;51.390;7.180;2023-05-07T14:09:25;16.50;92.10
36450;DHT22;22475;51.390;7.180;2023-05-07T14:11:51;16.50;92.10
36450;DHT22;22475;51.390;7.180;2023-05-07T14:14:18;16.50;92.10
36450;DHT22;22475;51.390;7.180;2023-05-07T14:16:45;16.50;92.10
36450;DHT22;22475;51.390;7.180;2023-05-07T14:19:12;16.50;92.10
36450;DHT22;22475;51.390;7.180;2023-05-07T14:21:39;16.50;92.10
36450;DHT22;22475;51.390;7.180;2023-05-07T14:24:07;16.50;92.10
36450;DHT22;22475;51.390;7.180;2023-05-07T14:26:34;16.50;92.10
36450;DHT22;22475;51.390;7.180;2023-05-07T14:29:01;16.50;92.10
36450;DHT22;22475;51.390;7.180;2023-05-07T14:31:28;16.50;92.10
36450;DHT22;22475;51.390;7.180;2023-05-07T14:33:54;16.50;92.10
36450;DHT22;22475;51.390;7.180;2023-05-07T14:36:23;16.50;92.10
36450;DHT22;22475;51.390;7.180;2023-05-07T14:38:51;16.50;92.10
36450;DHT22;22475;51.390;7.180;2023-05-07T14:41:19;16.50;92.10
36450;DHT22;22475;51.390;7.180;2023-05-07T14:43:46;16.50;92.10
36450;DHT22;22475;51.390;7.180;2023-05-07T14:46:15;16.50;92.10
36450;DHT22;22475;51.390;7.180;2023-05-07T14:48:43;16.50;92.10
36450;DHT22;22475;51.390;7.180;2023-05-07T14:51:10;16.50;92.10
36450;DHT22;22475;51.390;7.180;2023-05-07T14:53:37;16.50;92.10
36450;DHT22;22475;51.390;7.180;2023-05-07T14:56:04;16.50;92.10
36450;DHT22;22475;51.390;7.180;2023-05-07T14:58:33;16.50;92.10
36450;DHT22;22475;51.390;7.180;2023-05-07T15:01:00;16.50;92.10
36450;DHT22;22475;51.390;7.180;2023-05-07T15:03:27;16.50;92.10
36450;DHT22;22475;51.390;7.180;2023-05-07T15:05:54;16.50;92.10
36450;DHT22;22475;51.390;7.180;2023-05-07T15:08:21;16.50;92.10
36450;DHT22;22475;51.390;7.180;2023-05-07T15:10:47;16.50;92.10
36450;DHT22;22475;51.390;7.180;2023-05-07T15:13:14;16.50;92.10
36450;DHT22;22475;51.390;7.180;2023-05-07T15:15:42;16.50;92.10
36450;DHT22;22475;51.390;7.180;2023-05-07T15:18:10;16.50;92.10
36450;DHT22;22475;51.390;7.180;2023-05-07T15:20:36;16.50;92.10
36450;DHT22;22475;51.390;7.180;2023-05-07T15:23:03;16.50;92.10
36450;DHT22;22475;51.390;7.180;2023-05-07T15:25:30;16.50;92.10
36450;DHT22;22475;51.390;7.180;2023-05-07T15:27:59;16.60;92.20
36450;DHT22;22475;51.390;7.180;2023-05-07T15:30:25;16.50;92.10
36450;DHT22;22475;51.390;7.180;2023-05-07T15:32:54;16.50;92.10
36450;DHT22;22475;51.390;7.180;2023-05-07T15:35:21;16.50;92.10
36450;DHT22;22475;51.390;7.180;2023-05-07T15:37:48;16.50;92.10
36450;DHT22;22475;51.390;7.180;2023-05-07T15:40:16;16.50;92.10